Time,TemperatureF,DewpointF,PressureIn,WindDirection,WindDirectionDegrees,WindSpeedMPH,WindSpeedGustMPH,Humidity,HourlyPrecipIn,Conditions,Clouds,dailyrainin,SoftwareType,DateUTC
2013-04-06 00:02:00,34.0,23.0,30.14,East,82,3.0,7.0,64,0.00,,,0.00,,2013-04-06 05:02:00,
2013-04-06 00:13:00,34.0,23.0,30.14,East,82,3.0,7.0,64,0.00,,,0.00,,2013-04-06 05:13:00,
2013-04-06 00:22:00,34.0,23.0,30.14,East,88,2.0,6.0,65,0.00,,,0.00,,2013-04-06 05:22:00,
2013-04-06 00:32:00,34.0,24.0,30.14,East,86,2.0,6.0,66,0.00,,,0.00,,2013-04-06 05:32:00,
2013-04-06 00:42:00,34.0,24.0,30.14,East,86,2.0,6.0,66,0.00,,,0.00,,2013-04-06 05:42:00,
2013-04-06 00:52:00,34.0,23.0,30.13,ENE,77,4.0,7.0,64,0.00,,,0.00,,2013-04-06 05:52:00,
2013-04-06 01:02:00,34.0,22.0,30.14,ENE,76,2.0,6.0,62,0.00,,,0.00,,2013-04-06 06:02:00,
2013-04-06 01:12:00,34.0,22.0,30.14,ENE,76,2.0,6.0,62,0.00,,,0.00,,2013-04-06 06:12:00,
2013-04-06 01:22:00,34.0,22.0,30.13,ESE,105,2.0,6.0,61,0.00,,,0.00,,2013-04-06 06:22:00,
2013-04-06 01:32:00,34.0,23.0,30.13,ESE,107,3.0,6.0,63,0.00,,,0.00,,2013-04-06 06:32:00,
2013-04-06 01:42:00,34.0,23.0,30.13,ESE,107,3.0,6.0,63,0.00,,,0.00,,2013-04-06 06:42:00,
2013-04-06 01:53:00,34.0,24.0,30.14,East,96,3.0,5.0,67,0.00,,,0.00,,2013-04-06 06:53:00,
2013-04-06 02:03:00,34.0,25.0,30.11,NE,52,3.0,9.0,68,0.00,,,0.00,,2013-04-06 07:03:00,
2013-04-06 02:12:00,34.0,25.0,30.11,NE,52,3.0,9.0,68,0.00,,,0.00,,2013-04-06 07:12:00,
2013-04-06 02:22:00,34.0,26.0,30.12,East,96,3.0,8.0,72,0.00,,,0.00,,2013-04-06 07:22:00,
2013-04-06 02:33:00,34.0,26.0,30.11,ESE,105,3.0,6.0,73,0.00,,,0.00,,2013-04-06 07:33:00,
2013-04-06 02:43:00,34.0,26.0,30.11,ESE,105,3.0,6.0,73,0.00,,,0.00,,2013-04-06 07:43:00,
2013-04-06 02:53:00,34.0,27.0,30.10,East,101,5.0,6.0,76,0.00,,,0.00,,2013-04-06 07:53:00,
2013-04-06 03:02:00,34.0,28.0,30.09,East,89,3.0,6.0,77,0.00,,,0.00,,2013-04-06 08:02:00,
2013-04-06 03:12:00,34.0,28.0,30.09,East,89,3.0,6.0,77,0.00,,,0.00,,2013-04-06 08:12:00,
2013-04-06 03:22:00,34.0,28.0,30.08,East,83,4.0,8.0,77,0.00,,,0.00,,2013-04-06 08:22:00,
2013-04-06 03:32:00,34.0,28.0,30.08,ESE,105,5.0,7.0,77,0.00,,,0.00,,2013-04-06 08:32:00,
2013-04-06 03:42:00,34.0,28.0,30.08,ESE,105,5.0,7.0,77,0.00,,,0.00,,2013-04-06 08:42:00,
2013-04-06 03:52:00,34.0,28.0,30.06,ENE,68,4.0,8.0,77,0.00,,,0.00,,2013-04-06 08:52:00,
2013-04-06 04:02:00,34.0,28.0,30.06,East,92,4.0,9.0,77,0.00,,,0.00,,2013-04-06 09:02:00,
2013-04-06 04:12:00,34.0,28.0,30.06,East,92,4.0,9.0,77,0.00,,,0.00,,2013-04-06 09:12:00,
2013-04-06 04:22:00,34.0,28.0,30.05,East,91,3.0,5.0,77,0.00,,,0.00,,2013-04-06 09:22:00,
2013-04-06 04:32:00,35.0,28.0,30.05,East,84,4.0,7.0,76,0.00,,,0.00,,2013-04-06 09:32:00,
2013-04-06 04:40:00,35.0,27.0,30.05,SE,146,5.0,9.0,72,0.00,,,0.00,,2013-04-06 09:40:00,
2013-04-06 04:43:00,35.0,28.0,30.05,East,84,4.0,7.0,76,0.00,,,0.00,,2013-04-06 09:43:00,
2013-04-06 04:53:00,35.0,27.0,30.05,ENE,75,4.0,6.0,73,0.00,,,0.00,,2013-04-06 09:53:00,
2013-04-06 05:03:00,35.0,27.0,30.05,SE,146,5.0,9.0,72,0.00,,,0.00,,2013-04-06 10:03:00,
2013-04-06 05:13:00,35.0,27.0,30.05,SE,146,5.0,9.0,72,0.00,,,0.00,,2013-04-06 10:13:00,
2013-04-06 05:22:00,35.0,27.0,30.05,SE,146,5.0,9.0,72,0.00,,,0.00,,2013-04-06 10:22:00,
2013-04-06 05:33:00,35.0,27.0,30.05,SE,146,5.0,9.0,72,0.00,,,0.00,,2013-04-06 10:33:00,
2013-04-06 23:03:00,54.0,49.0,29.54,ESE,119,5.0,12.0,82,0.00,,,0.07,,2013-04-07 04:03:00,
2013-04-06 23:14:00,54.0,49.0,29.54,ESE,119,5.0,12.0,82,0.00,,,0.07,,2013-04-07 04:14:00,
2013-04-06 23:23:00,54.0,48.0,29.53,WSW,244,5.0,12.0,80,0.00,,,0.07,,2013-04-07 04:23:00,
2013-04-06 23:32:00,54.0,48.0,29.53,West,259,4.0,10.0,80,0.00,,,0.07,,2013-04-07 04:32:00,
2013-04-06 23:43:00,54.0,48.0,29.53,West,259,4.0,10.0,80,0.00,,,0.07,,2013-04-07 04:43:00,
2013-04-06 23:53:00,53.0,48.0,29.53,SW,232,7.0,10.0,83,0.01,,,0.08,,2013-04-07 04:53:00,